ZWWW

Ürümqi Diwopu International Airport

Ürümqi, China
TAF ZWWW 220904Z 2212/2312 18002MPS 3500 BR NSC TXM04/09Z TNM09/23Z BECMG 2300/2301 1400 BR BECMG 2303/2304 36002MPS 2500 BR
Issued Valid From Valid To
Jan-22 @ 09:04 UTC
(8 hours ago)
Jan-22 @ 12:00 UTC
(5 hours ago)
Jan-23 @ 12:00 UTC
(in 19 hours)
Jan-22 @ 12:00 to Jan-23 @ 00:00
TAF ZWWW 220904Z 2212/2312 18002MPS 3500 BR NSC TXM04/09Z TNM09/23Z
Wind Visibility Clouds Conditions
180° at 4 knots 3,492 meters
  • No significant clouds
  • Mist
Becoming Jan-23 @ 00:00 to Jan-23 @ 03:00
BECMG 2300/2301 1400 BR
Wind Visibility Clouds Conditions
180° at 4 knots 1,400 meters
  • No significant clouds
  • Mist
Becoming Jan-23 @ 03:00 to Jan-23 @ 12:00
BECMG 2303/2304 36002MPS 2500 BR
Wind Visibility Clouds Conditions
360° at 4 knots 2,494 meters
  • No significant clouds
  • Mist
TAF ZWWW 220904Z 2212/2312 18002MPS 3500 BR NSC TXM04/09Z TNM09/23Z BECMG 2300/2301 1400 BR BECMG 2303/2304 36002MPS 2500 BR
Issued Jan-22 @ 09:04 UTC
(8 hours ago)
Valid From Jan-22 @ 12:00 UTC
(5 hours ago)
Valid To Jan-23 @ 12:00 UTC
(in 19 hours)
Jan-22 @ 12:00 - Jan-23 @ 00:00
Wind Visibility
180° at 4 knots 3,492 meters
Clouds
  • No significant clouds
Conditions
  • Mist
Becoming Jan-23 @ 00:00 - Jan-23 @ 03:00
Wind Visibility
180° at 4 knots 1,400 meters
Clouds
  • No significant clouds
Conditions
  • Mist
Becoming Jan-23 @ 03:00 - Jan-23 @ 12:00
Wind Visibility
360° at 4 knots 2,494 meters
Clouds
  • No significant clouds
Conditions
  • Mist